Sierra Vista, AZ (85635)

4:39 PM MST on July 30, 2015 (GMT -0700)
Coronado Drive & Avenida Cochise | | Change Station
CLOSE
Current Station
Personal Weather Station
Location: Sierra Vista, AZ
Elevation: 4616 ft
Nearby Weather Stations

Elev 4616 ft 31.53 °N, 110.28 °W | Updated 3 minutes ago

Mostly Cloudy
Mostly Cloudy
91.3 °F
Feels Like 91 °F
N
0.0
Wind Variable Wind from ENE
Gusts 0.0 mph

Today
High -- | Low -- °F
--% Chance of Precip.
Yesterday
High -- | Low -- °F
Precip. -- in
5:35 AM 7:18 PM
Full, 100% visible
Pressure 29.98 in
Visibility 10.0 miles
Clouds Mostly Cloudy 14000 ft
Heat Index 91 °F
Dew Point 60 °F
Humidity 35%
Rainfall 0.00 in
Snow Depth Not available.
UV 3 out of 12
Pollen 3.30 out of 12
Air Quality Not available.
Flu Activity Not available.
METAR KFHU 302258Z AUTO 23008KT 10SM BKN140 30/14 A3019 RMK AO2 TSE33 SLP150 T02950143

More Conditions Fewer Conditions

Pressure 29.98 in
Visibility 10.0 miles
Clouds Mostly Cloudy 14000 ft
Heat Index 91 °F
Dew Point 60 °F
Humidity 35%
Rainfall 0.00 in
Snow Depth Not available.
UV 3 out of 12
Pollen 3.30 out of 12
Air Quality Not available.
Flu Activity Not available.
METAR KFHU 302258Z AUTO 23008KT 10SM BKN140 30/14 A3019 RMK AO2 TSE33 SLP150 T02950143

More Conditions Fewer Conditions

Nowcast | as of 2:56 PM MST on July 30, 2015

Isolated showers and thunderstorms are developing over the high terrain of the forecast area...as well as over the tohono o'odham nation in western Pima County. Light to moderate rainfall can be expected with most of the showers and thunderstorms...with brief heavy rain and gusty winds accompanying the stronger storms. Storms are currently moving to the north at 10 mph.

×

10-Day Weather Forecast

×

Almanac

Astronomy

Jul. 30, 2015 Rise Set
Actual Time
Civil Twilight
Nautical Twilight
Astronomical Twilight
Moon
Length of Visible Light
Length of Day
Tomorrow will be .
, % of the Moon is Illuminated

Today's Extremes

State Highs State Lows

Community

WunderPhotos

Upload Photos

1,842,542 photos uploaded!

WunderBlogs® & News

Nearby

Air Quality

  Air Quality AQ Index Pollutant
Not available.

Snow Depth

Station Depth Elevation

Earthquake Activity

City Distance Mag. Time & Date
Minimum magnitude displayed is 2.5.

Coastal Water Temperatures

Place Temperature

Stations

Nearby Weather Stations

Station Location Temp. Windchill Dew Point Humidity Wind Precip. Elev Updated Type